map of KMS home
Great Circle Mapper logo
KMS - Airport
Location
City:  Kumasi, Ghana
ICAO / IATA:DGSI / KMS

Details
Type:Airport (Aerodrome, Airfield)
Use:Public/Civil
Latitude:642'52"N (6.714564)
Longitude:135'27"W (-1.590818)
Datum:WGS 1984
Elevation:942 ft (287 m)
Variation:3.9W (WMM2015 magnetic declination)
Runways:1
Longest:6502 × 148 ft (1982 × 45 m), paved

Time
Time Zone:UTC+0
Local Time:

Weather
TAF:DGSI 200956Z 2012/2118 31008KT 5000 HZ SCT018
BECMG 2101/2105 23003KT 8000 FEW010
TEMPO 2106/2109 5000 BR SCT010

Related Locations
Nearby:
Farthest:FUN: 12297 mi / 19790 km
Funafuti Atoll [Intl], TV

Find:

   beyond  
but within

Other Information
Maps:
NOTAMs:
Links:
Sources:

  
flag of Ghana   

Sectional Chart

Flight Planning
at skyvector.com

Satellite Image

Google Maps Satellite View

 

Copyright © 2004-2014 Karl L. Swartz. All rights reserved.
The Great Circle Mapper name and logo are trademarks of the Great Circle Mapper.
All other trademarks mentioned herein belong to their respective owners.
Please see credits for attibutions and further copyright information.

  Follow gcmap on Facebook Follow gcmap on Twitter

hCard Microformat

Geo Microformat